Time;durP1;ratioP1;P1;durP2;ratioP2;P2;SDS_P1;SDS_P2;PMS_P1;PMS_P2;Temp;Humidity;BMP_temperature;BMP_pressure;BME280_temperature;BME280_humidity;BME280_pressure;Samples;Min_cycle;Max_cycle;Signal;HPM_P1;HPM_P2
2021/12/26 00:01:00;;;;;;;11.77;8.82;;;;;;;-1.00;60.52;98568.22;5066205;28;20244;-65
2021/12/26 00:03:34;;;;;;;14.18;8.75;;;;;;;-0.80;60.52;98618.09;5066660;28;20040;-65
2021/12/26 00:06:06;;;;;;;14.73;9.25;;;;;;;-0.86;60.35;98612.16;5066270;28;20057;-65
2021/12/26 00:08:37;;;;;;;14.02;9.75;;;;;;;-0.79;60.42;98634.53;5066622;28;20100;-65
2021/12/26 00:11:08;;;;;;;13.80;7.72;;;;;;;-0.78;60.01;98634.50;5065445;28;20045;-65
2021/12/26 00:13:39;;;;;;;11.85;8.27;;;;;;;-0.75;60.11;98634.44;5065718;28;20105;-65
2021/12/26 00:16:08;;;;;;;12.05;8.82;;;;;;;-1.63;60.10;98488.03;5066355;28;20067;-66
2021/12/26 00:18:42;;;;;;;14.07;8.70;;;;;;;-0.77;60.46;98640.56;5066407;28;20041;-66
2021/12/26 00:21:16;;;;;;;14.00;9.32;;;;;;;-0.79;60.77;98631.94;5065703;28;20095;-65
2021/12/26 00:23:50;;;;;;;16.38;8.50;;;;;;;-0.79;60.12;98632.81;5066275;28;20041;-66
2021/12/26 00:26:22;;;;;;;16.48;9.32;;;;;;;-1.63;60.34;98489.78;5066326;28;20090;-66
2021/12/26 00:28:56;;;;;;;10.80;8.00;;;;;;;-0.80;60.37;98630.22;5066560;28;20049;-66
2021/12/26 00:31:29;;;;;;;12.88;8.95;;;;;;;-0.78;60.45;98629.31;5085299;28;20091;-66
2021/12/26 00:34:01;;;;;;;15.27;8.82;;;;;;;-1.06;60.48;98582.19;5086077;28;20083;-65
2021/12/26 00:36:34;;;;;;;14.50;8.43;;;;;;;-1.05;58.75;98585.63;5086337;28;20040;-67
2021/12/26 00:39:07;;;;;;;16.48;8.45;;;;;;;-0.83;58.91;98638.09;5068655;28;20036;-66
2021/12/26 00:41:39;;;;;;;11.98;7.95;;;;;;;-0.87;58.96;98637.31;5086190;28;20048;-65
2021/12/26 00:44:13;;;;;;;14.25;8.30;;;;;;;-0.91;59.55;98635.66;5085912;28;20292;-65
2021/12/26 00:46:45;;;;;;;16.25;9.43;;;;;;;-0.88;59.42;98634.75;5086105;28;20219;-66
2021/12/26 00:49:18;;;;;;;11.15;7.80;;;;;;;-0.88;58.82;98639.94;5068264;28;20057;-66
2021/12/26 00:51:50;;;;;;;15.23;9.40;;;;;;;-0.87;58.55;98639.06;5068654;28;20259;-66
2021/12/26 00:54:23;;;;;;;14.32;9.48;;;;;;;-0.84;59.81;98647.66;5085984;28;20098;-66
2021/12/26 00:56:56;;;;;;;12.63;7.97;;;;;;;-0.90;59.17;98645.19;5085642;28;20060;-65
2021/12/26 00:59:29;;;;;;;12.23;8.85;;;;;;;-0.90;58.20;98644.31;5085660;28;20247;-65
2021/12/26 01:02:01;;;;;;;15.27;8.48;;;;;;;-0.97;59.41;98646.19;5085730;28;20094;-66
2021/12/26 01:04:34;;;;;;;12.10;7.50;;;;;;;-0.92;59.30;98656.50;5085564;28;20036;-66
2021/12/26 01:07:12;;;;;;;13.73;8.38;;;;;;;-0.98;58.87;98654.88;5085873;28;20293;-66
2021/12/26 01:09:49;;;;;;;10.43;7.55;;;;;;;-0.94;59.50;98660.88;5085709;28;20301;-66
2021/12/26 01:12:23;;;;;;;13.13;8.57;;;;;;;-0.96;58.28;98660.06;5085457;28;20044;-65
2021/12/26 01:15:02;;;;;;;16.02;8.43;;;;;;;-0.94;58.42;98655.69;5085383;28;20040;-66
2021/12/26 01:17:35;;;;;;;14.98;7.80;;;;;;;-1.03;59.01;98657.53;5085376;28;20044;-66
2021/12/26 01:20:12;;;;;;;14.85;8.65;;;;;;;-1.01;58.61;98657.50;5085470;28;20041;-66
2021/12/26 01:22:45;;;;;;;14.85;8.65;;;;;;;-1.02;59.35;98648.84;5084912;28;20040;-66
2021/12/26 01:25:17;;;;;;;12.13;7.45;;;;;;;-0.99;58.84;98653.16;5085307;28;20288;-66
2021/12/26 01:27:49;;;;;;;12.07;7.72;;;;;;;-1.26;58.84;98596.47;5085614;28;20082;-66
2021/12/26 01:30:23;;;;;;;15.38;8.55;;;;;;;-1.01;59.09;98649.69;5085011;28;20106;-66
2021/12/26 01:32:56;;;;;;;13.25;6.93;;;;;;;-1.02;58.39;98641.03;5085138;28;20049;-65
2021/12/26 01:35:28;;;;;;;11.75;7.75;;;;;;;-0.99;58.19;98632.34;5085181;28;20041;-65
2021/12/26 01:38:01;;;;;;;15.45;7.03;;;;;;;-1.24;57.97;98582.56;5085413;28;20052;-65
2021/12/26 01:40:36;;;;;;;13.38;8.30;;;;;;;-1.02;58.93;98635.00;5085342;28;20044;-65
2021/12/26 01:43:08;;;;;;;15.23;8.55;;;;;;;-0.99;57.65;98641.91;5085341;28;20094;-65
2021/12/26 01:45:44;;;;;;;14.75;8.05;;;;;;;-0.97;58.13;98643.59;5085348;28;20091;-66
2021/12/26 01:48:17;;;;;;;16.73;8.50;;;;;;;-1.01;58.69;98644.50;5085263;28;20048;-66
2021/12/26 01:50:52;;;;;;;10.07;6.95;;;;;;;-0.99;58.99;98644.50;5085229;28;20071;-66
2021/12/26 01:53:35;;;;;;;14.10;7.47;;;;;;;-1.07;57.82;98642.03;5085368;28;20318;-65
2021/12/26 01:56:11;;;;;;;14.18;8.40;;;;;;;-1.92;58.28;98552.69;5084945;28;20048;-65
2021/12/26 01:58:42;;;;;;;13.48;8.23;;;;;;;-1.05;58.47;98645.44;5084909;28;20212;-66
2021/12/26 02:01:14;;;;;;;11.15;7.45;;;;;;;-1.03;57.85;98643.69;5084838;28;20236;-66
2021/12/26 02:03:43;;;;;;;13.32;8.77;;;;;;;-1.06;57.19;98649.78;5084479;28;20045;-65
2021/12/26 02:06:12;;;;;;;14.60;7.97;;;;;;;-1.12;57.43;98643.84;5085092;28;20036;-65
2021/12/26 02:08:42;;;;;;;12.48;8.07;;;;;;;-1.13;58.02;98648.19;5084844;28;20070;-65
2021/12/26 02:11:12;;;;;;;14.40;8.07;;;;;;;-1.09;58.48;98641.19;5085320;28;20032;-66
2021/12/26 02:13:43;;;;;;;11.93;7.00;;;;;;;-1.13;57.12;98645.59;5085074;28;20048;-65
2021/12/26 02:16:14;;;;;;;13.60;8.65;;;;;;;-1.23;57.78;98638.00;5084998;28;20059;-66
2021/12/26 02:18:43;;;;;;;12.32;6.70;;;;;;;-1.21;58.11;98639.69;5084727;28;20178;-66
2021/12/26 02:21:26;;;;;;;12.90;7.82;;;;;;;-1.17;57.79;98654.34;5084926;28;20056;-66
2021/12/26 02:24:10;;;;;;;11.95;7.82;;;;;;;-1.18;56.93;98644.84;5084947;28;20056;-65
2021/12/26 02:29:32;;;;;;;12.70;7.68;;;;;;;-1.25;57.46;98648.44;5084463;28;20202;-65
2021/12/26 02:32:05;;;;;;;13.85;8.57;;;;;;;-1.21;56.84;98644.03;5084903;28;20086;-65
2021/12/26 02:34:37;;;;;;;12.60;8.55;;;;;;;-1.19;57.65;98650.06;5087231;28;20044;-66
2021/12/26 02:37:11;;;;;;;15.93;8.05;;;;;;;-1.20;57.38;98654.41;5088487;28;20044;-65
2021/12/26 02:39:43;;;;;;;12.93;7.70;;;;;;;-1.20;56.70;98654.41;5088501;28;20049;-65
2021/12/26 02:42:18;;;;;;;14.40;8.05;;;;;;;-2.71;56.49;98405.25;5088349;28;20040;-65
2021/12/26 02:44:52;;;;;;;11.35;7.28;;;;;;;-1.19;57.90;98689.91;5088414;28;20040;-65
2021/12/26 02:47:31;;;;;;;13.88;8.00;;;;;;;-1.97;55.17;98530.25;5088057;28;20040;-65
2021/12/26 02:50:07;;;;;;;13.25;6.93;;;;;;;-1.24;56.52;98657.94;5088272;28;20044;-64
2021/12/26 02:52:40;;;;;;;10.27;7.13;;;;;;;-1.19;56.48;98652.66;5088277;28;20044;-65
2021/12/26 02:55:14;;;;;;;12.55;7.75;;;;;;;-1.19;57.46;98650.06;5087940;28;20094;-65
2021/12/26 02:57:47;;;;;;;15.93;8.07;;;;;;;-1.12;57.36;98659.47;5088137;28;20090;-65
2021/12/26 03:00:23;;;;;;;13.38;7.40;;;;;;;-1.15;56.16;98654.31;5088094;28;20040;-65
2021/12/26 03:03:00;;;;;;;13.55;7.70;;;;;;;-1.19;56.54;98660.47;5087663;28;20049;-65
2021/12/26 03:05:35;;;;;;;13.68;7.60;;;;;;;-1.20;56.95;98658.75;5087727;28;20090;-65
2021/12/26 03:08:11;;;;;;;13.27;8.45;;;;;;;-1.21;56.73;98696.91;5087984;28;20239;-65
2021/12/26 03:10:43;;;;;;;12.32;8.30;;;;;;;-1.26;56.60;98661.47;5087648;28;20090;-65
2021/12/26 03:13:16;;;;;;;10.23;7.40;;;;;;;-1.38;56.66;98662.56;5087658;28;20154;-65
2021/12/26 03:15:49;;;;;;;13.02;7.63;;;;;;;-1.33;56.71;98668.53;5087582;28;20247;-65
2021/12/26 03:18:21;;;;;;;14.02;7.93;;;;;;;-1.28;57.60;98664.09;5087490;28;20086;-65
2021/12/26 03:20:54;;;;;;;11.65;8.90;;;;;;;-1.25;57.56;98669.25;5087479;28;20044;-65
2021/12/26 03:23:28;;;;;;;12.50;8.00;;;;;;;-1.26;56.31;98664.91;5087716;28;20090;-65
2021/12/26 03:26:03;;;;;;;12.98;7.88;;;;;;;-1.27;56.53;98658.00;5087427;28;20244;-65
2021/12/26 03:28:35;;;;;;;12.50;6.68;;;;;;;-1.34;56.10;98654.66;5087679;28;20048;-65
2021/12/26 03:31:08;;;;;;;11.65;6.82;;;;;;;-1.31;57.29;98656.34;5087086;28;20052;-65
2021/12/26 03:33:38;;;;;;;12.70;6.95;;;;;;;-1.30;57.28;98654.59;5087474;28;20040;-65
2021/12/26 03:36:08;;;;;;;10.13;6.90;;;;;;;-1.31;56.92;98653.75;5087432;28;20040;-65
2021/12/26 03:38:40;;;;;;;12.43;7.72;;;;;;;-1.30;56.57;98652.88;5087407;28;20029;-65
2021/12/26 03:41:08;;;;;;;12.95;7.05;;;;;;;-1.28;56.81;98651.09;5087210;28;20221;-65
2021/12/26 03:43:38;;;;;;;14.30;7.70;;;;;;;-4.02;56.88;98183.72;5087237;28;20212;-65
2021/12/26 03:46:08;;;;;;;11.55;7.28;;;;;;;-1.27;56.42;98654.56;5087004;28;20201;-65
2021/12/26 03:48:39;;;;;;;12.38;7.68;;;;;;;-1.25;57.05;98648.44;5087163;28;20305;-65
2021/12/26 03:51:09;;;;;;;14.05;7.65;;;;;;;-1.25;56.78;98650.19;5086908;28;20315;-65
2021/12/26 03:53:40;;;;;;;11.55;6.70;;;;;;;-1.24;57.39;98650.16;5087097;28;20280;-65
2021/12/26 03:56:09;;;;;;;14.93;8.32;;;;;;;-1.25;56.45;98647.59;5087145;28;20327;-65
2021/12/26 03:58:42;;;;;;;11.40;6.75;;;;;;;-1.35;55.86;98657.28;5086972;28;20060;-64
2021/12/26 04:01:09;;;;;;;10.98;6.60;;;;;;;-1.35;57.35;98657.28;5086679;28;20052;-64
2021/12/26 04:03:39;;;;;;;10.48;6.57;;;;;;;-1.31;57.43;98664.16;5086574;28;20040;-64
2021/12/26 04:06:10;;;;;;;13.70;7.55;;;;;;;-1.29;57.36;98670.19;5087622;28;20037;-64
2021/12/26 04:08:41;;;;;;;11.50;7.18;;;;;;;-1.28;57.21;98671.91;5086806;28;20056;-65
2021/12/26 04:11:10;;;;;;;12.73;7.10;;;;;;;-1.26;56.75;98674.47;5086804;28;20056;-66
2021/12/26 04:13:40;;;;;;;12.48;6.65;;;;;;;-1.30;56.88;98678.00;5086709;28;20193;-66
2021/12/26 04:16:10;;;;;;;15.32;8.50;;;;;;;-1.30;55.06;98670.22;5086738;28;20231;-66
2021/12/26 04:18:40;;;;;;;11.90;7.65;;;;;;;-1.33;55.04;98673.72;5086640;28;20330;-65
2021/12/26 04:21:10;;;;;;;12.80;7.68;;;;;;;-1.36;55.41;98668.59;5087036;28;20043;-66
2021/12/26 04:23:42;;;;;;;12.75;7.68;;;;;;;-1.42;56.11;98677.34;5086452;28;20044;-66
2021/12/26 04:26:10;;;;;;;12.48;7.47;;;;;;;-1.42;56.03;98672.16;5086497;28;20048;-65
2021/12/26 04:28:40;;;;;;;10.45;7.07;;;;;;;-1.39;56.51;98676.44;5086736;28;20028;-65
2021/12/26 04:31:11;;;;;;;13.88;7.75;;;;;;;-1.38;56.23;98678.16;5085918;28;20056;-65
2021/12/26 04:33:41;;;;;;;13.13;7.93;;;;;;;-1.39;56.59;98674.69;5086287;28;20045;-65
2021/12/26 04:36:11;;;;;;;14.48;8.02;;;;;;;-1.42;55.59;98682.53;5086257;28;20048;-65
2021/12/26 04:38:43;;;;;;;14.32;8.82;;;;;;;-1.50;56.27;98680.97;5086717;28;20036;-65
2021/12/26 04:41:12;;;;;;;16.58;6.70;;;;;;;-1.49;56.61;98680.94;5086127;28;20086;-64
2021/12/26 04:43:41;;;;;;;13.85;6.63;;;;;;;-1.46;56.35;98683.47;5085993;28;20055;-64
2021/12/26 04:46:11;;;;;;;12.35;7.40;;;;;;;-1.52;55.52;98682.72;5085917;28;20028;-63
2021/12/26 04:48:43;;;;;;;11.73;7.55;;;;;;;-1.58;56.60;98683.69;5086189;28;20048;-63
2021/12/26 04:51:12;;;;;;;12.82;8.63;;;;;;;-1.61;56.39;98691.53;5085916;28;20025;-63
2021/12/26 04:53:43;;;;;;;11.43;6.75;;;;;;;-1.56;56.59;98692.31;5085894;28;20174;-63
2021/12/26 04:56:12;;;;;;;10.57;7.05;;;;;;;-1.58;56.77;98688.03;5085334;28;20090;-64
2021/12/26 04:58:42;;;;;;;11.25;6.88;;;;;;;-1.61;56.37;98683.75;5068441;28;20205;-65
2021/12/26 05:01:12;;;;;;;13.95;7.55;;;;;;;-1.60;56.25;98692.41;5085551;28;20201;-64
2021/12/26 05:03:42;;;;;;;11.25;6.03;;;;;;;-1.58;56.13;98694.09;5085698;28;20170;-65
2021/12/26 05:06:12;;;;;;;10.68;6.80;;;;;;;-1.60;56.34;98695.84;5085477;28;20182;-64
2021/12/26 05:08:44;;;;;;;11.43;6.65;;;;;;;-1.66;55.37;98693.38;5085582;28;20292;-64
2021/12/26 05:11:12;;;;;;;13.88;7.85;;;;;;;-1.66;56.55;98690.75;5085134;28;20204;-64
2021/12/26 05:13:43;;;;;;;11.23;7.85;;;;;;;-1.71;56.06;98695.19;5085634;28;20316;-64
2021/12/26 05:16:13;;;;;;;13.27;6.45;;;;;;;-1.74;56.13;98690.03;5085385;28;20165;-65
2021/12/26 05:18:43;;;;;;;13.65;6.60;;;;;;;-1.73;56.07;98695.19;5085600;28;20174;-64
2021/12/26 05:21:13;;;;;;;12.77;7.13;;;;;;;-1.74;55.94;98697.81;5085512;28;20277;-64
2021/12/26 05:23:44;;;;;;;11.57;7.43;;;;;;;-2.04;56.04;98655.03;5085744;28;20033;-64
2021/12/26 05:26:13;;;;;;;10.70;6.55;;;;;;;-1.75;56.01;98694.38;5085473;28;20052;-64
2021/12/26 05:28:43;;;;;;;14.48;8.65;;;;;;;-1.78;56.46;98698.75;5085956;28;20090;-64
2021/12/26 05:31:14;;;;;;;10.68;6.75;;;;;;;-1.80;56.03;98697.94;5085059;28;20071;-64
2021/12/26 05:33:44;;;;;;;12.25;8.02;;;;;;;-1.80;55.43;98700.53;5085374;28;20049;-64
2021/12/26 05:36:14;;;;;;;11.73;7.75;;;;;;;-1.82;54.86;98691.91;5085441;28;20048;-64
2021/12/26 05:38:45;;;;;;;12.13;7.60;;;;;;;-1.84;56.11;98694.53;5085425;28;20047;-65
2021/12/26 05:41:14;;;;;;;13.50;7.05;;;;;;;-1.83;55.90;98695.38;5086096;28;20037;-64
2021/12/26 05:43:44;;;;;;;11.73;7.57;;;;;;;-1.85;56.42;98700.59;5085231;28;20051;-65
2021/12/26 05:46:14;;;;;;;13.93;7.50;;;;;;;-1.92;55.29;98696.38;5085271;28;20058;-65
2021/12/26 05:48:44;;;;;;;9.93;7.30;;;;;;;-1.97;55.02;98705.97;5085251;28;20049;-64
2021/12/26 05:51:14;;;;;;;13.15;7.55;;;;;;;-2.00;56.34;98695.63;5084872;28;20040;-65
2021/12/26 05:53:46;;;;;;;10.57;7.18;;;;;;;-2.01;55.69;98705.16;5085765;28;20032;-65
2021/12/26 05:56:15;;;;;;;13.52;7.93;;;;;;;-1.94;56.29;98713.72;5085214;28;20040;-65
2021/12/26 05:58:45;;;;;;;12.07;7.15;;;;;;;-3.39;55.50;98453.00;5084915;28;20223;-65
2021/12/26 06:01:15;;;;;;;12.77;7.10;;;;;;;-1.92;56.03;98718.91;5085163;28;20178;-65
2021/12/26 06:03:45;;;;;;;15.18;8.30;;;;;;;-1.93;55.42;98712.84;5084847;28;20178;-65
2021/12/26 06:06:15;;;;;;;12.98;7.18;;;;;;;-1.91;55.37;98716.28;5084826;28;20300;-64
2021/12/26 06:08:46;;;;;;;14.73;8.55;;;;;;;-1.90;55.57;98718.00;5088010;28;20303;-64
2021/12/26 06:11:15;;;;;;;16.60;8.00;;;;;;;-1.96;54.57;98720.69;5089081;28;20041;-64
2021/12/26 06:13:45;;;;;;;14.75;7.28;;;;;;;-1.99;55.86;98718.13;5088994;28;20056;-65
2021/12/26 06:16:16;;;;;;;15.75;8.55;;;;;;;-1.98;56.07;98722.44;5089241;28;20131;-65
2021/12/26 06:18:46;;;;;;;20.13;9.77;;;;;;;-1.98;55.53;98720.69;5088673;28;20048;-65
2021/12/26 06:21:16;;;;;;;13.98;9.13;;;;;;;-1.99;55.35;98713.78;5089158;28;20029;-64
2021/12/26 06:23:50;;;;;;;14.68;8.45;;;;;;;-1.99;55.27;98719.00;5088791;28;20041;-65
2021/12/26 06:26:23;;;;;;;14.57;8.30;;;;;;;-2.27;55.67;98670.94;5088777;28;20048;-65
2021/12/26 06:28:51;;;;;;;16.08;9.85;;;;;;;-2.04;55.31;98720.78;5088184;28;20104;-65
2021/12/26 06:31:21;;;;;;;19.40;9.63;;;;;;;-2.06;55.85;98713.91;5088117;28;20052;-64
2021/12/26 06:33:51;;;;;;;13.95;9.27;;;;;;;-2.10;56.03;98725.22;5088585;28;20044;-65
2021/12/26 06:36:21;;;;;;;13.30;8.95;;;;;;;-2.08;55.70;98731.25;5088158;28;20205;-65
2021/12/26 06:38:53;;;;;;;14.40;8.48;;;;;;;-2.05;55.64;98734.66;5088173;28;20296;-64
2021/12/26 06:41:22;;;;;;;14.88;8.80;;;;;;;-2.15;54.68;98746.06;5088187;28;20044;-64
2021/12/26 06:43:52;;;;;;;16.77;9.07;;;;;;;-2.10;55.98;98735.59;5088330;28;20032;-64
2021/12/26 06:46:22;;;;;;;16.48;9.50;;;;;;;-2.16;55.87;98736.56;5070246;28;20059;-64
2021/12/26 06:48:52;;;;;;;16.73;9.65;;;;;;;-2.13;55.77;98746.03;5088093;28;20090;-64
2021/12/26 06:51:22;;;;;;;16.45;9.65;;;;;;;-2.11;55.61;98739.09;5088328;28;20102;-64
2021/12/26 06:53:53;;;;;;;16.52;10.13;;;;;;;-2.54;55.67;98713.72;5088206;28;20044;-64
2021/12/26 06:56:22;;;;;;;15.65;9.63;;;;;;;-2.32;55.69;98722.06;5087514;28;20040;-64
2021/12/26 06:58:52;;;;;;;16.55;9.88;;;;;;;-2.13;55.43;98753.81;5087747;28;20041;-64
2021/12/26 07:01:22;;;;;;;15.60;9.20;;;;;;;-2.14;55.30;98759.91;5088039;28;20040;-64
2021/12/26 07:03:54;;;;;;;16.92;10.57;;;;;;;-3.52;55.98;98526.56;5087943;28;20101;-64
2021/12/26 07:06:23;;;;;;;17.65;10.18;;;;;;;-2.15;55.08;98761.63;5087775;28;20089;-65
2021/12/26 07:08:54;;;;;;;20.58;11.38;;;;;;;-2.13;55.48;98759.00;5088229;28;20064;-64
2021/12/26 07:11:23;;;;;;;16.50;10.40;;;;;;;-3.46;55.01;98570.53;5087681;28;20063;-65
2021/12/26 07:13:53;;;;;;;21.70;9.32;;;;;;;-2.14;55.28;98762.50;5087914;28;20166;-65
2021/12/26 07:16:24;;;;;;;21.83;9.63;;;;;;;-2.15;55.72;98760.78;5087542;28;20305;-64
2021/12/26 07:18:53;;;;;;;14.43;9.88;;;;;;;-2.16;55.87;98766.84;5087354;28;20285;-65
2021/12/26 07:21:23;;;;;;;18.77;9.15;;;;;;;-2.49;54.93;98717.09;5087424;28;20308;-65
2021/12/26 07:23:55;;;;;;;17.75;10.00;;;;;;;-2.15;55.36;98766.81;5087594;28;20293;-64
2021/12/26 07:26:24;;;;;;;22.75;11.25;;;;;;;-2.13;55.48;98774.59;5088062;28;20055;-64
2021/12/26 07:28:54;;;;;;;19.10;11.40;;;;;;;-2.24;55.33;98751.38;5087295;28;20051;-65
2021/12/26 07:31:25;;;;;;;16.92;10.43;;;;;;;-2.22;55.62;98772.97;5087035;28;20102;-64
2021/12/26 07:33:54;;;;;;;19.40;11.13;;;;;;;-2.24;55.42;98771.28;5087202;28;20044;-64
2021/12/26 07:36:24;;;;;;;18.83;10.05;;;;;;;-2.23;54.66;98775.59;5087220;28;20040;-65
2021/12/26 07:38:56;;;;;;;16.80;10.13;;;;;;;-2.22;55.00;98772.97;5087394;28;20028;-64
2021/12/26 07:41:25;;;;;;;17.88;11.10;;;;;;;-2.18;55.47;98773.78;5087169;28;20064;-65
2021/12/26 07:43:54;;;;;;;17.73;10.02;;;;;;;-3.46;55.86;98560.16;5087217;28;20033;-65
2021/12/26 07:46:25;;;;;;;18.92;11.20;;;;;;;-2.13;55.74;98772.84;5087535;28;20098;-65
2021/12/26 07:48:55;;;;;;;17.55;10.65;;;;;;;-2.12;55.81;98778.91;5069686;28;20056;-65
2021/12/26 07:51:25;;;;;;;17.35;10.38;;;;;;;-2.12;55.49;98771.13;5087107;28;20227;-65
2021/12/26 07:53:59;;;;;;;17.90;11.02;;;;;;;-2.20;55.40;98778.16;5087129;28;20323;-65
2021/12/26 07:56:32;;;;;;;18.63;10.93;;;;;;;-2.16;55.63;98772.03;5086859;28;20047;-64
2021/12/26 07:59:04;;;;;;;20.13;11.10;;;;;;;-2.16;56.25;98777.22;5087026;28;20047;-64
2021/12/26 08:01:37;;;;;;;21.35;11.00;;;;;;;-2.17;56.23;98765.13;5086671;28;20059;-64
2021/12/26 08:04:10;;;;;;;17.05;10.77;;;;;;;-3.83;55.37;98489.78;5086493;28;20040;-65
2021/12/26 08:06:42;;;;;;;17.48;9.43;;;;;;;-2.11;55.59;98775.44;5086369;28;20040;-64
2021/12/26 08:09:16;;;;;;;18.00;9.68;;;;;;;-2.07;55.90;98780.56;5086740;28;20292;-65
2021/12/26 08:11:49;;;;;;;19.30;10.77;;;;;;;-2.06;54.83;98781.41;5086723;28;20048;-64
2021/12/26 08:14:21;;;;;;;19.92;10.90;;;;;;;-2.11;55.17;98778.03;5086695;28;20285;-64
2021/12/26 08:16:53;;;;;;;25.13;12.02;;;;;;;-2.11;55.09;98785.81;5086545;28;20040;-64
2021/12/26 08:19:26;;;;;;;20.98;11.07;;;;;;;-2.19;54.84;98782.47;5086303;28;20051;-64
2021/12/26 08:21:58;;;;;;;19.80;12.20;;;;;;;-2.20;54.74;98783.34;5086518;28;20200;-64
2021/12/26 08:24:32;;;;;;;20.42;12.57;;;;;;;-2.14;56.04;98778.06;5086088;28;20055;-64
2021/12/26 08:27:04;;;;;;;20.42;12.70;;;;;;;-2.17;54.90;99061.97;5086215;28;20051;-64
2021/12/26 08:29:37;;;;;;;19.48;11.80;;;;;;;-2.17;56.14;98780.72;5086118;28;20060;-65
2021/12/26 08:32:13;;;;;;;18.42;10.93;;;;;;;-2.14;56.00;98784.13;5084859;28;20297;-64
2021/12/26 08:34:47;;;;;;;20.60;11.98;;;;;;;-2.14;55.94;98778.06;5086235;28;20051;-64
2021/12/26 08:37:19;;;;;;;22.55;13.40;;;;;;;-2.24;54.29;98781.66;5086244;28;20040;-64
2021/12/26 08:39:53;;;;;;;22.13;13.00;;;;;;;-2.30;55.50;98780.88;5085903;28;20040;-64
2021/12/26 08:42:26;;;;;;;25.55;13.30;;;;;;;-2.27;55.66;98792.09;5086128;28;20040;-64
2021/12/26 08:44:59;;;;;;;20.48;11.60;;;;;;;-2.33;55.73;98796.47;5086046;28;20044;-64
2021/12/26 08:47:32;;;;;;;21.98;13.55;;;;;;;-2.23;55.73;98793.75;5086031;28;20041;-64
2021/12/26 08:50:05;;;;;;;26.38;13.35;;;;;;;-2.29;54.93;98794.69;5085695;28;20040;-64
2021/12/26 08:52:38;;;;;;;20.88;12.15;;;;;;;-2.90;55.32;98707.22;5085906;28;20040;-64
2021/12/26 08:55:11;;;;;;;20.40;14.05;;;;;;;-2.28;55.42;98791.22;5085911;28;20044;-64
2021/12/26 08:57:44;;;;;;;20.38;12.27;;;;;;;-2.28;55.72;98796.41;5085754;28;20040;-64
2021/12/26 09:00:18;;;;;;;23.60;13.02;;;;;;;-2.25;55.48;98790.34;5085819;28;20196;-64
2021/12/26 09:02:51;;;;;;;22.88;15.55;;;;;;;-2.17;56.11;98794.53;5085598;28;20047;-64
2021/12/26 09:05:23;;;;;;;23.38;13.70;;;;;;;-2.20;54.97;98789.41;5085375;28;20309;-64
2021/12/26 09:07:56;;;;;;;26.30;14.70;;;;;;;-2.13;55.66;98797.97;5085373;28;20040;-64
2021/12/26 09:10:29;;;;;;;20.63;14.63;;;;;;;-2.06;55.68;98804.78;5085249;28;20040;-64
2021/12/26 09:13:02;;;;;;;20.60;13.48;;;;;;;-2.01;55.37;98806.44;5085351;28;20041;-64
2021/12/26 09:15:35;;;;;;;26.17;12.02;;;;;;;-1.99;55.35;98803.81;5085648;28;20044;-64
2021/12/26 09:18:08;;;;;;;21.88;13.50;;;;;;;-2.01;55.71;98806.44;5085640;28;20292;-64
2021/12/26 09:20:40;;;;;;;21.92;13.18;;;;;;;-2.07;54.98;98808.25;5085507;28;20048;-64
2021/12/26 09:23:13;;;;;;;27.05;12.55;;;;;;;-4.38;55.15;98420.50;5085177;28;20040;-64
2021/12/26 09:25:46;;;;;;;19.85;12.38;;;;;;;-2.04;55.33;98796.09;5085345;28;20048;-64
2021/12/26 09:28:19;;;;;;;23.63;13.60;;;;;;;-2.00;55.33;98802.97;5085264;28;20041;-64
2021/12/26 09:30:51;;;;;;;29.50;15.02;;;;;;;-1.99;56.30;98796.03;5084981;28;20048;-65
2021/12/26 09:33:24;;;;;;;17.90;11.68;;;;;;;-4.56;55.75;98342.25;5085062;28;20059;-64
2021/12/26 09:35:56;;;;;;;23.35;13.18;;;;;;;-1.79;55.71;98788.81;5085431;28;20297;-64
2021/12/26 09:38:28;;;;;;;20.70;12.68;;;;;;;-1.77;55.92;98797.44;5084930;28;20293;-65
2021/12/26 09:41:02;;;;;;;21.05;11.90;;;;;;;-1.74;55.34;98800.00;5084853;28;20040;-64
2021/12/26 09:43:34;;;;;;;24.13;11.82;;;;;;;-1.74;55.85;98797.41;5084792;28;20316;-64
2021/12/26 09:46:07;;;;;;;22.73;12.77;;;;;;;-1.77;55.07;98797.44;5085009;28;20063;-65
2021/12/26 09:48:39;;;;;;;19.02;11.60;;;;;;;-1.76;56.18;98793.97;5085065;28;20216;-64
2021/12/26 09:51:12;;;;;;;24.38;13.45;;;;;;;-1.77;56.07;98789.66;5084804;28;20319;-64
2021/12/26 09:53:45;;;;;;;21.45;13.15;;;;;;;-1.80;55.20;98872.81;5084989;28;20048;-64
2021/12/26 09:56:19;;;;;;;20.98;14.45;;;;;;;-1.76;56.07;98793.97;5084582;28;20044;-64
2021/12/26 09:58:54;;;;;;;22.73;13.37;;;;;;;-2.14;56.05;99012.59;5084723;28;20063;-64
2021/12/26 10:01:33;;;;;;;22.88;13.05;;;;;;;-1.68;54.65;98799.91;5084595;28;20300;-64
2021/12/26 10:04:18;;;;;;;24.90;13.45;;;;;;;-1.66;54.77;98792.09;5084651;28;20048;-64
2021/12/26 10:06:53;;;;;;;23.02;13.38;;;;;;;-1.66;55.08;98781.69;5067391;28;20041;-64
2021/12/26 10:09:25;;;;;;;;;;;;;;;-1.71;54.46;98783.50;5085093;28;20052;-63
2021/12/26 10:12:00;;;;;;;21.15;11.73;;;;;;;-1.97;55.68;98742.34;5084511;28;19924;-64
2021/12/26 10:14:34;;;;;;;;;;;;;;;-1.79;53.67;98785.38;5085384;28;20048;-64
2021/12/26 10:17:08;;;;;;;19.85;12.07;;;;;;;-1.75;55.80;98777.50;5084597;28;19916;-65
2021/12/26 10:19:44;;;;;;;20.08;13.25;;;;;;;-2.90;55.72;98584.50;5084809;28;20040;-64
2021/12/26 10:22:25;;;;;;;24.25;13.55;;;;;;;-1.66;56.37;98763.50;5084834;28;20040;-64
2021/12/26 10:24:58;;;;;;;21.50;12.60;;;;;;;-1.61;55.91;98777.28;5084806;28;20064;-64
2021/12/26 10:27:32;;;;;;;25.98;14.70;;;;;;;-1.68;55.57;98767.88;5084633;28;20205;-64
2021/12/26 10:30:06;;;;;;;25.42;14.48;;;;;;;-1.62;55.94;98767.78;5084489;28;20052;-64
2021/12/26 10:32:41;;;;;;;22.53;15.17;;;;;;;-1.62;56.02;98770.38;5084797;28;20304;-64
2021/12/26 10:35:16;;;;;;;32.40;14.65;;;;;;;-1.61;55.99;98768.63;5084751;28;20375;-65
2021/12/26 10:37:50;;;;;;;19.58;13.48;;;;;;;-1.60;56.49;98767.75;5084543;28;20047;-64
2021/12/26 10:40:25;;;;;;;24.48;14.88;;;;;;;-1.52;57.15;98766.75;5084530;28;20210;-64
2021/12/26 10:43:00;;;;;;;29.77;18.27;;;;;;;-1.47;57.41;98762.34;5084741;28;20059;-65
2021/12/26 10:45:35;;;;;;;25.85;15.75;;;;;;;-1.53;56.81;98766.78;5084413;28;20560;-65
2021/12/26 10:48:09;;;;;;;35.55;23.55;;;;;;;-1.47;58.48;98757.13;5085050;28;20048;-65
2021/12/26 10:50:42;;;;;;;30.00;19.90;;;;;;;-1.39;57.82;98760.47;5084407;28;20041;-65
2021/12/26 10:53:14;;;;;;;26.13;16.38;;;;;;;-1.40;57.41;98761.34;5084275;28;20040;-65
2021/12/26 10:55:51;;;;;;;27.27;15.95;;;;;;;-1.40;57.41;98758.75;5086884;28;20216;-65
2021/12/26 10:58:27;;;;;;;31.10;18.20;;;;;;;-1.49;57.74;98758.91;5070339;28;20044;-65
2021/12/26 11:00:59;;;;;;;28.92;18.10;;;;;;;-1.54;57.85;98754.66;5088089;28;20041;-65
2021/12/26 11:03:32;;;;;;;28.23;16.98;;;;;;;-1.79;57.85;98712.63;5088013;28;20315;-65
2021/12/26 11:06:06;;;;;;;30.00;18.33;;;;;;;-1.46;58.25;98760.59;5087934;28;20044;-64
2021/12/26 11:08:42;;;;;;;29.25;18.63;;;;;;;-1.51;57.92;98754.63;5087998;28;20313;-65
2021/12/26 11:11:19;;;;;;;29.10;17.92;;;;;;;-1.58;58.42;98760.78;5087855;28;20076;-65
2021/12/26 11:14:01;;;;;;;32.00;18.40;;;;;;;-1.54;58.76;98754.66;5087448;28;20087;-65
2021/12/26 11:16:38;;;;;;;31.42;18.40;;;;;;;-1.53;58.93;98761.59;5087811;28;20044;-65
2021/12/26 11:19:10;;;;;;;34.58;19.52;;;;;;;-1.52;59.02;98756.34;5087750;28;20056;-65
2021/12/26 11:21:43;;;;;;;30.65;20.33;;;;;;;-1.48;58.96;98749.38;5087457;28;20040;-65
2021/12/26 11:24:15;;;;;;;37.88;19.13;;;;;;;-1.44;58.95;98743.25;5070252;28;20040;-66
2021/12/26 11:26:48;;;;;;;28.50;17.08;;;;;;;-1.47;59.00;98745.88;5087629;28;20051;-65
2021/12/26 11:29:21;;;;;;;34.75;20.52;;;;;;;-1.51;59.39;98752.88;5087361;28;20067;-66
2021/12/26 11:31:54;;;;;;;34.22;19.33;;;;;;;-1.52;59.73;98743.38;5087585;28;20047;-64
2021/12/26 11:34:27;;;;;;;37.38;22.42;;;;;;;-1.46;60.15;98737.22;5087249;28;20040;-65
2021/12/26 11:37:01;;;;;;;43.38;27.02;;;;;;;-2.19;60.98;98598.16;5087163;28;20044;-65
2021/12/26 11:39:37;;;;;;;33.00;21.35;;;;;;;-1.29;60.18;98729.13;5087299;28;20044;-66
2021/12/26 11:42:29;;;;;;;34.53;19.77;;;;;;;-1.40;60.25;98724.97;5087016;28;20178;-66
2021/12/26 11:45:12;;;;;;;32.17;19.25;;;;;;;-1.60;60.31;98684.59;5087274;28;20040;-66
2021/12/26 11:48:22;;;;;;;35.40;18.95;;;;;;;-2.21;60.60;98573.94;5087240;28;20096;-66